createdAt,value
2023-07-24T00:00:03.419Z,11.25
2023-07-24T00:02:30.242Z,9.30
2023-07-24T00:04:56.874Z,11.43
2023-07-24T00:07:24.428Z,10.48
2023-07-24T00:09:51.097Z,7.32
2023-07-24T00:12:17.779Z,9.32
2023-07-24T00:14:44.458Z,6.72
2023-07-24T00:17:11.172Z,8.55
2023-07-24T00:19:40.035Z,10.63
2023-07-24T00:22:06.840Z,9.77
2023-07-24T00:24:33.714Z,8.45
2023-07-24T00:27:00.452Z,9.05
2023-07-24T00:29:27.208Z,9.45
2023-07-24T00:31:53.907Z,9.27
2023-07-24T00:34:20.545Z,9.00
2023-07-24T00:36:47.221Z,9.45
2023-07-24T00:39:15.980Z,9.30
2023-07-24T00:41:43.297Z,6.80
2023-07-24T00:44:10.051Z,7.93
2023-07-24T00:46:37.144Z,11.25
2023-07-24T00:49:05.790Z,10.50
2023-07-24T00:51:34.009Z,8.95
2023-07-24T00:54:03.361Z,13.40
2023-07-24T00:56:32.778Z,8.20
2023-07-24T00:59:00.753Z,8.63
2023-07-24T01:01:27.986Z,10.48
2023-07-24T01:03:55.280Z,7.50
2023-07-24T01:06:22.189Z,7.07
2023-07-24T01:08:48.785Z,8.38
2023-07-24T01:11:37.296Z,8.63
2023-07-24T01:14:28.030Z,7.82
2023-07-24T01:16:56.823Z,9.93
2023-07-24T01:20:05.229Z,8.77
2023-07-24T01:22:31.931Z,7.78
2023-07-24T01:25:28.150Z,9.13
2023-07-24T01:27:54.799Z,9.00
2023-07-24T01:30:22.175Z,8.38
2023-07-24T01:32:49.566Z,9.18
2023-07-24T01:35:16.556Z,7.95
2023-07-24T01:37:44.603Z,8.20
2023-07-24T01:40:12.844Z,7.63
2023-07-24T01:42:39.959Z,10.13
2023-07-24T01:45:07.253Z,10.00
2023-07-24T01:47:34.244Z,9.73
2023-07-24T01:50:01.008Z,11.43
2023-07-24T01:52:27.759Z,11.90
2023-07-24T01:54:54.444Z,9.90
2023-07-24T01:57:21.167Z,8.27
2023-07-24T01:59:47.934Z,10.27
2023-07-24T02:02:14.656Z,8.25
2023-07-24T02:04:41.358Z,11.48
2023-07-24T02:07:07.997Z,7.05
2023-07-24T02:09:34.637Z,8.23
2023-07-24T02:12:03.050Z,10.55
2023-07-24T02:14:29.690Z,8.75
2023-07-24T02:16:56.354Z,10.90
2023-07-24T02:19:22.961Z,11.63
2023-07-24T02:21:49.600Z,9.65
2023-07-24T02:24:16.289Z,14.57
2023-07-24T02:26:42.974Z,8.40
2023-07-24T02:29:09.618Z,9.45
2023-07-24T02:31:36.325Z,10.63
2023-07-24T02:34:02.990Z,8.07
2023-07-24T02:36:30.018Z,7.20
2023-07-24T02:38:56.865Z,8.60
2023-07-24T02:41:23.528Z,8.60
2023-07-24T02:43:50.167Z,7.32
2023-07-24T02:46:16.815Z,7.60
2023-07-24T02:48:43.499Z,7.68
2023-07-24T02:51:10.076Z,8.23
2023-07-24T02:53:36.693Z,8.85
2023-07-24T02:56:03.759Z,8.20
2023-07-24T02:58:30.572Z,8.02
2023-07-24T03:01:07.923Z,7.63
2023-07-24T03:03:35.406Z,9.43
2023-07-24T03:06:02.648Z,12.23
2023-07-24T03:08:29.258Z,7.65
2023-07-24T03:10:55.937Z,10.10
2023-07-24T03:13:22.632Z,10.20
2023-07-24T03:15:57.704Z,8.38
2023-07-24T03:18:24.576Z,8.15
2023-07-24T03:20:51.478Z,8.13
2023-07-24T03:23:18.201Z,13.15
2023-07-24T03:25:44.910Z,8.35
2023-07-24T03:28:11.539Z,10.18
2023-07-24T03:30:38.219Z,8.35
2023-07-24T03:33:05.192Z,9.63
2023-07-24T03:35:31.863Z,11.73
2023-07-24T03:37:58.591Z,10.65
2023-07-24T03:40:25.184Z,9.90
2023-07-24T03:42:51.795Z,11.20
2023-07-24T03:45:18.500Z,7.00
2023-07-24T03:47:45.137Z,12.38
2023-07-24T03:50:11.916Z,8.57
2023-07-24T03:52:38.625Z,9.20
2023-07-24T03:55:05.767Z,8.20
2023-07-24T03:57:32.413Z,10.10
2023-07-24T03:59:59.183Z,7.53
2023-07-24T04:02:25.829Z,10.18
2023-07-24T04:04:52.483Z,11.18
2023-07-24T04:07:19.214Z,10.75
2023-07-24T04:09:45.835Z,11.75
2023-07-24T04:12:12.498Z,8.60
2023-07-24T04:14:39.344Z,10.98
2023-07-24T04:17:06.303Z,10.95
2023-07-24T04:19:34.023Z,10.35
2023-07-24T04:22:00.760Z,9.93
2023-07-24T04:24:27.395Z,11.73
2023-07-24T04:26:54.037Z,9.75
2023-07-24T04:29:24.825Z,11.40
2023-07-24T04:31:51.840Z,12.27
2023-07-24T04:34:18.577Z,9.68
2023-07-24T04:36:45.254Z,11.07
2023-07-24T04:39:11.979Z,9.18
2023-07-24T04:41:38.559Z,11.32
2023-07-24T04:44:05.218Z,8.25
2023-07-24T04:46:32.340Z,8.68
2023-07-24T04:48:59.227Z,12.05
2023-07-24T04:51:25.962Z,12.93
2023-07-24T04:53:52.616Z,10.07
2023-07-24T04:56:19.249Z,10.48
2023-07-24T04:58:45.882Z,11.82
2023-07-24T05:01:12.523Z,12.27
2023-07-24T05:03:39.671Z,10.65
2023-07-24T05:06:06.324Z,10.48
2023-07-24T05:08:33.084Z,10.05
2023-07-24T05:11:00.361Z,10.20
2023-07-24T05:13:27.910Z,9.77
2023-07-24T05:15:54.597Z,10.75
2023-07-24T05:18:21.445Z,9.02
2023-07-24T05:20:49.806Z,9.02
2023-07-24T05:23:16.497Z,9.35
2023-07-24T05:25:43.305Z,10.90
2023-07-24T05:28:10.881Z,10.57
2023-07-24T05:30:37.974Z,9.65
2023-07-24T05:33:04.777Z,9.80
2023-07-24T05:35:31.537Z,13.88
2023-07-24T05:37:58.227Z,11.05
2023-07-24T05:40:25.008Z,10.82
2023-07-24T05:42:51.731Z,10.48
2023-07-24T05:45:18.469Z,10.00
2023-07-24T05:47:45.201Z,11.68
2023-07-24T05:50:14.444Z,11.85
2023-07-24T05:52:41.789Z,11.25
2023-07-24T05:55:09.225Z,9.93
2023-07-24T05:57:36.167Z,11.38
2023-07-24T06:00:06.090Z,9.93
2023-07-24T06:02:33.171Z,10.73
2023-07-24T06:04:59.902Z,10.30
2023-07-24T06:07:26.588Z,9.18
2023-07-24T06:09:53.205Z,9.63
2023-07-24T06:12:19.854Z,11.60
2023-07-24T06:14:46.543Z,12.38
2023-07-24T06:17:13.181Z,11.10
2023-07-24T06:19:39.846Z,8.95
2023-07-24T06:22:06.456Z,11.07
2023-07-24T06:24:33.163Z,9.98
2023-07-24T06:26:59.913Z,11.25
2023-07-24T06:29:27.020Z,10.38
2023-07-24T06:31:53.700Z,9.93
2023-07-24T06:34:20.396Z,10.90
2023-07-24T06:36:47.127Z,9.80
2023-07-24T06:39:13.726Z,9.48
2023-07-24T06:41:40.386Z,11.50
2023-07-24T06:44:06.975Z,10.88
2023-07-24T06:46:33.684Z,10.55
2023-07-24T06:49:00.338Z,10.73
2023-07-24T06:51:27.090Z,9.63
2023-07-24T06:53:53.725Z,9.05
2023-07-24T06:56:20.500Z,9.05
2023-07-24T06:58:47.080Z,7.47
2023-07-24T07:01:13.749Z,8.18
2023-07-24T07:03:40.527Z,8.95
2023-07-24T07:06:07.899Z,7.90
2023-07-24T07:08:34.647Z,8.15
2023-07-24T07:11:02.312Z,9.40
2023-07-24T07:13:29.288Z,12.18
2023-07-24T07:15:58.493Z,9.40
2023-07-24T07:18:25.216Z,7.78
2023-07-24T07:20:53.858Z,8.82
2023-07-24T07:23:21.280Z,9.75
2023-07-24T07:25:48.022Z,9.10
2023-07-24T07:28:15.972Z,9.73
2023-07-24T07:30:45.776Z,8.23
2023-07-24T07:33:13.109Z,8.75
2023-07-24T07:35:39.746Z,8.05
2023-07-24T07:38:06.428Z,8.77
2023-07-24T07:40:33.120Z,9.25
2023-07-24T07:42:59.786Z,9.35
2023-07-24T07:45:26.764Z,10.32
2023-07-24T07:47:54.586Z,8.45
2023-07-24T07:50:21.443Z,8.98
2023-07-24T07:52:51.960Z,9.90
2023-07-24T07:55:19.963Z,8.52
2023-07-24T07:57:46.597Z,8.35
2023-07-24T08:00:13.586Z,7.78
2023-07-24T08:02:43.323Z,9.00
2023-07-24T08:05:17.109Z,9.95
2023-07-24T08:07:47.728Z,9.35
2023-07-24T08:10:16.900Z,13.77
2023-07-24T08:12:45.081Z,9.23
2023-07-24T08:15:12.677Z,9.20
2023-07-24T08:17:39.594Z,8.52
2023-07-24T08:20:07.073Z,9.18
2023-07-24T08:22:34.185Z,8.95
2023-07-24T08:25:00.898Z,8.65
2023-07-24T08:27:27.638Z,8.77
2023-07-24T08:29:54.467Z,7.70
2023-07-24T08:32:21.736Z,7.00
2023-07-24T08:34:48.487Z,8.40
2023-07-24T08:37:15.144Z,8.57
2023-07-24T08:39:42.700Z,11.65
2023-07-24T08:42:13.374Z,9.48
2023-07-24T08:44:40.288Z,11.30
2023-07-24T08:47:11.513Z,12.27
2023-07-24T08:49:41.237Z,10.85
2023-07-24T08:52:10.645Z,8.52
2023-07-24T08:54:40.210Z,9.05
2023-07-24T08:57:09.922Z,11.07
2023-07-24T08:59:36.678Z,10.82
2023-07-24T09:02:03.484Z,11.02
2023-07-24T09:04:30.451Z,12.23
2023-07-24T09:06:59.197Z,11.40
2023-07-24T09:09:31.542Z,12.52
2023-07-24T09:12:00.336Z,13.52
2023-07-24T09:14:33.328Z,12.23
2023-07-24T09:17:07.986Z,9.27
2023-07-24T09:19:36.444Z,10.18
2023-07-24T09:22:15.058Z,11.75
2023-07-24T09:24:58.441Z,11.10
2023-07-24T09:27:33.163Z,9.93
2023-07-24T09:30:01.141Z,10.60
2023-07-24T09:32:29.047Z,9.68
2023-07-24T09:34:56.063Z,13.55
2023-07-24T09:37:27.365Z,11.93
2023-07-24T09:39:54.389Z,10.02
2023-07-24T09:42:32.696Z,11.52
2023-07-24T09:45:00.173Z,10.25
2023-07-24T09:47:51.067Z,9.70
2023-07-24T09:50:14.356Z,10.45
2023-07-24T09:52:43.276Z,8.98
2023-07-24T09:55:16.152Z,9.05
2023-07-24T09:57:45.106Z,8.98
2023-07-24T10:00:13.810Z,9.75
2023-07-24T10:02:41.829Z,12.98
2023-07-24T10:05:08.674Z,10.75
2023-07-24T10:07:35.648Z,9.73
2023-07-24T10:10:03.173Z,12.15
2023-07-24T10:12:31.785Z,9.43
2023-07-24T10:14:59.030Z,11.57
2023-07-24T10:17:38.337Z,12.07
2023-07-24T10:20:06.944Z,9.00
2023-07-24T10:22:34.280Z,10.18
2023-07-24T10:25:01.170Z,13.70
2023-07-24T10:27:29.417Z,12.75
2023-07-24T10:30:14.810Z,12.32
2023-07-24T10:32:54.183Z,11.73
2023-07-24T10:35:24.048Z,11.80
2023-07-24T10:38:00.702Z,12.95
2023-07-24T10:40:27.434Z,12.25
2023-07-24T10:43:21.749Z,12.88
2023-07-24T10:48:18.406Z,12.35
2023-07-24T10:50:49.177Z,12.40
2023-07-24T10:53:21.287Z,14.88
2023-07-24T10:55:48.817Z,13.73
2023-07-24T10:58:15.739Z,14.05
2023-07-24T11:00:46.446Z,11.63
2023-07-24T11:03:14.599Z,11.43
2023-07-24T11:05:46.136Z,11.00
2023-07-24T11:08:16.867Z,11.75
2023-07-24T11:10:50.490Z,11.35
2023-07-24T11:13:18.949Z,11.15
2023-07-24T11:15:46.347Z,11.40
2023-07-24T11:18:14.241Z,12.65
2023-07-24T11:20:45.469Z,11.70
2023-07-24T11:23:12.471Z,10.40
2023-07-24T11:25:39.952Z,11.10
2023-07-24T11:28:12.005Z,10.95
2023-07-24T11:30:39.064Z,12.82
2023-07-24T11:33:19.321Z,11.50
2023-07-24T11:35:46.902Z,12.27
2023-07-24T11:38:14.870Z,12.02
2023-07-24T11:40:44.925Z,12.82
2023-07-24T11:43:22.436Z,13.10
2023-07-24T11:45:53.071Z,11.18
2023-07-24T11:48:20.631Z,11.75
2023-07-24T11:50:55.726Z,11.73
2023-07-24T11:53:27.217Z,13.88
2023-07-24T11:55:57.374Z,12.68
2023-07-24T11:58:27.222Z,12.30
2023-07-24T12:00:54.808Z,12.23
2023-07-24T12:03:29.657Z,12.90
2023-07-24T12:05:57.024Z,10.90
2023-07-24T12:08:37.326Z,12.48
2023-07-24T12:11:16.811Z,11.23
2023-07-24T12:13:43.479Z,11.50
2023-07-24T12:16:10.122Z,11.43
2023-07-24T12:18:36.833Z,15.18
2023-07-24T12:21:03.596Z,13.25
2023-07-24T12:23:30.335Z,12.32
2023-07-24T12:25:56.974Z,10.90
2023-07-24T12:28:23.606Z,11.13
2023-07-24T12:30:50.365Z,15.70
2023-07-24T12:33:17.829Z,15.02
2023-07-24T12:35:44.496Z,12.52
2023-07-24T12:38:11.267Z,15.02
2023-07-24T12:40:37.889Z,11.25
2023-07-24T12:43:04.568Z,13.88
2023-07-24T12:45:31.282Z,13.88
2023-07-24T12:47:58.060Z,12.55
2023-07-24T12:50:25.784Z,14.98
2023-07-24T12:52:52.575Z,13.32
2023-07-24T12:55:19.677Z,11.20
2023-07-24T12:57:46.257Z,15.25
2023-07-24T13:00:13.206Z,13.93
2023-07-24T13:02:40.125Z,12.15
2023-07-24T13:05:07.008Z,11.00
2023-07-24T13:07:33.935Z,12.52
2023-07-24T13:10:00.709Z,15.80
2023-07-24T13:12:27.428Z,12.43
2023-07-24T13:14:54.082Z,15.50
2023-07-24T13:17:20.765Z,11.18
2023-07-24T13:19:47.550Z,11.75
2023-07-24T13:22:14.240Z,12.73
2023-07-24T13:24:41.049Z,14.18
2023-07-24T13:27:07.822Z,14.40
2023-07-24T13:29:34.452Z,13.45
2023-07-24T13:32:01.136Z,15.07
2023-07-24T13:34:27.825Z,13.18
2023-07-24T13:36:54.515Z,13.18
2023-07-24T13:39:21.489Z,13.32
2023-07-24T13:41:48.171Z,13.93
2023-07-24T13:44:14.910Z,12.93
2023-07-24T13:46:41.631Z,14.10
2023-07-24T13:49:08.665Z,14.82
2023-07-24T13:51:35.491Z,13.90
2023-07-24T13:54:03.480Z,16.58
2023-07-24T13:56:34.706Z,14.48
2023-07-24T13:59:01.873Z,15.25
2023-07-24T14:01:28.622Z,15.30
2023-07-24T14:03:55.638Z,14.27
2023-07-24T14:06:22.359Z,16.23
2023-07-24T14:08:49.023Z,15.90
2023-07-24T14:11:15.686Z,16.02
2023-07-24T14:13:42.291Z,13.77
2023-07-24T14:16:08.984Z,12.02
2023-07-24T14:18:35.671Z,16.88
2023-07-24T14:21:02.372Z,14.95
2023-07-24T14:23:29.111Z,13.98
2023-07-24T14:25:55.999Z,15.27
2023-07-24T14:28:22.649Z,16.23
2023-07-24T14:30:49.456Z,15.77
2023-07-24T14:33:16.116Z,16.08
2023-07-24T14:35:43.235Z,21.48
2023-07-24T14:38:10.057Z,16.52
2023-07-24T14:40:36.755Z,15.07
2023-07-24T14:43:06.493Z,14.15
2023-07-24T14:45:34.532Z,12.95
2023-07-24T14:48:01.434Z,11.23
2023-07-24T14:50:28.391Z,12.70
2023-07-24T14:52:55.056Z,12.65
2023-07-24T14:55:21.824Z,12.32
2023-07-24T14:57:49.083Z,12.68
2023-07-24T15:00:17.512Z,14.15
2023-07-24T15:02:44.754Z,17.15
2023-07-24T15:05:11.572Z,14.80
2023-07-24T15:07:38.944Z,13.90
2023-07-24T15:10:06.373Z,14.30
2023-07-24T15:12:33.020Z,14.15
2023-07-24T15:14:59.737Z,14.65
2023-07-24T15:17:26.519Z,17.33
2023-07-24T15:19:53.144Z,15.63
2023-07-24T15:22:20.109Z,12.75
2023-07-24T15:24:48.026Z,20.48
2023-07-24T15:27:14.705Z,14.48
2023-07-24T15:29:41.547Z,16.63
2023-07-24T15:32:08.841Z,13.82
2023-07-24T15:34:38.238Z,15.30
2023-07-24T15:37:06.439Z,14.95
2023-07-24T15:39:33.103Z,17.73
2023-07-24T15:41:59.742Z,12.98
2023-07-24T15:44:26.377Z,13.68
2023-07-24T15:46:53.268Z,12.13
2023-07-24T15:49:20.124Z,14.00
2023-07-24T15:51:46.963Z,14.68
2023-07-24T15:54:13.678Z,13.15
2023-07-24T15:56:40.543Z,14.05
2023-07-24T15:59:07.663Z,15.73
2023-07-24T16:01:34.878Z,17.33
2023-07-24T16:04:02.081Z,14.50
2023-07-24T16:06:29.317Z,15.00
2023-07-24T16:08:55.971Z,17.95
2023-07-24T16:11:22.790Z,12.95
2023-07-24T16:13:49.449Z,13.38
2023-07-24T16:16:16.177Z,13.40
2023-07-24T16:18:43.041Z,13.65
2023-07-24T16:21:09.739Z,11.45
2023-07-24T16:23:36.773Z,13.00
2023-07-24T16:26:03.716Z,15.85
2023-07-24T16:28:30.484Z,15.05
2023-07-24T16:30:58.791Z,11.27
2023-07-24T16:33:26.005Z,13.20
2023-07-24T16:35:53.156Z,12.18
2023-07-24T16:38:20.141Z,12.13
2023-07-24T16:40:46.855Z,15.43
2023-07-24T16:43:13.541Z,14.13
2023-07-24T16:45:40.209Z,14.18
2023-07-24T16:48:07.523Z,14.32
2023-07-24T16:50:36.619Z,12.52
2023-07-24T16:53:04.741Z,16.05
2023-07-24T16:55:31.535Z,14.52
2023-07-24T16:57:58.695Z,14.10
2023-07-24T17:00:25.341Z,16.83
2023-07-24T17:02:52.166Z,14.73
2023-07-24T17:05:19.226Z,12.85
2023-07-24T17:07:46.172Z,16.77
2023-07-24T17:10:12.898Z,14.90
2023-07-24T17:12:39.607Z,13.30
2023-07-24T17:15:07.066Z,14.50
2023-07-24T17:17:33.986Z,14.52
2023-07-24T17:20:01.016Z,15.23
2023-07-24T17:22:27.879Z,13.65
2023-07-24T17:24:54.567Z,15.52
2023-07-24T17:27:21.772Z,14.75
2023-07-24T17:29:49.194Z,16.55
2023-07-24T17:32:19.722Z,15.35
2023-07-24T17:34:46.412Z,16.50
2023-07-24T17:37:21.209Z,15.82
2023-07-24T17:39:55.489Z,15.52
2023-07-24T17:42:22.247Z,16.33
2023-07-24T17:44:49.020Z,17.65
2023-07-24T17:47:15.755Z,17.23
2023-07-24T17:49:47.636Z,17.65
2023-07-24T17:52:25.183Z,15.75
2023-07-24T17:54:51.770Z,21.23
2023-07-24T17:57:18.370Z,18.63
2023-07-24T17:59:45.363Z,19.50
2023-07-24T18:02:12.262Z,18.13
2023-07-24T18:04:39.404Z,21.10
2023-07-24T18:07:06.344Z,17.13
2023-07-24T18:09:32.997Z,19.52
2023-07-24T18:11:59.896Z,19.52
2023-07-24T18:14:26.667Z,20.67
2023-07-24T18:16:53.486Z,18.27
2023-07-24T18:19:20.110Z,27.73
2023-07-24T18:21:46.760Z,23.48
2023-07-24T18:24:13.839Z,20.17
2023-07-24T18:26:40.637Z,20.95
2023-07-24T18:29:07.336Z,19.75
2023-07-24T18:31:34.268Z,20.88
2023-07-24T18:34:01.212Z,22.50
2023-07-24T18:36:27.891Z,18.33
2023-07-24T18:38:54.760Z,18.48
2023-07-24T18:41:21.503Z,18.65
2023-07-24T18:43:48.207Z,26.00
2023-07-24T18:46:14.950Z,17.92
2023-07-24T18:48:41.681Z,26.50
2023-07-24T18:51:09.666Z,25.08
2023-07-24T18:53:36.300Z,22.25
2023-07-24T18:56:03.071Z,22.27
2023-07-24T18:58:29.830Z,17.77
2023-07-24T19:00:56.665Z,18.42
2023-07-24T19:03:23.556Z,21.92
2023-07-24T19:05:50.244Z,22.63
2023-07-24T19:08:16.928Z,20.35
2023-07-24T19:10:43.730Z,23.63
2023-07-24T19:13:11.159Z,17.63
2023-07-24T19:15:37.833Z,20.42
2023-07-24T19:18:04.562Z,22.88
2023-07-24T19:20:33.611Z,20.30
2023-07-24T19:23:00.997Z,19.52
2023-07-24T19:25:29.197Z,17.63
2023-07-24T19:27:55.929Z,19.63
2023-07-24T19:30:22.850Z,21.42
2023-07-24T19:32:49.629Z,21.77
2023-07-24T19:35:16.732Z,21.02
2023-07-24T19:37:43.445Z,23.67
2023-07-24T19:40:10.438Z,19.25
2023-07-24T19:42:37.258Z,26.85
2023-07-24T19:45:04.463Z,19.65
2023-07-24T19:47:31.289Z,19.30
2023-07-24T19:49:58.045Z,18.15
2023-07-24T19:52:24.749Z,18.33
2023-07-24T19:54:52.560Z,23.58
2023-07-24T19:57:19.825Z,21.33
2023-07-24T19:59:46.650Z,23.17
2023-07-24T20:02:14.570Z,21.65
2023-07-24T20:04:41.356Z,34.20
2023-07-24T20:07:08.237Z,31.73
2023-07-24T20:09:35.382Z,22.92
2023-07-24T20:12:02.520Z,20.38
2023-07-24T20:14:29.485Z,20.27
2023-07-24T20:16:56.146Z,22.60
2023-07-24T20:19:22.842Z,27.05
2023-07-24T20:21:49.835Z,20.95
2023-07-24T20:24:16.551Z,25.67
2023-07-24T20:26:43.204Z,25.63
2023-07-24T20:29:09.792Z,21.77
2023-07-24T20:31:36.657Z,21.13
2023-07-24T20:34:03.476Z,25.00
2023-07-24T20:36:30.149Z,22.13
2023-07-24T20:38:56.728Z,17.83
2023-07-24T20:41:23.388Z,21.77
2023-07-24T20:43:50.082Z,22.35
2023-07-24T20:46:17.437Z,20.98
2023-07-24T20:48:44.989Z,23.75
2023-07-24T20:51:19.219Z,20.25
2023-07-24T20:53:45.897Z,25.02
2023-07-24T20:56:13.081Z,23.25
2023-07-24T20:58:42.381Z,25.10
2023-07-24T21:01:10.357Z,22.42
2023-07-24T21:03:37.167Z,22.92
2023-07-24T21:06:04.125Z,23.25
2023-07-24T21:08:31.372Z,22.98
2023-07-24T21:10:58.085Z,24.70
2023-07-24T21:13:24.769Z,21.50
2023-07-24T21:15:52.163Z,25.10
2023-07-24T21:18:19.305Z,22.35
2023-07-24T21:20:47.134Z,23.92
2023-07-24T21:23:14.818Z,25.80
2023-07-24T21:25:53.216Z,18.83
2023-07-24T21:28:20.353Z,22.63
2023-07-24T21:30:48.652Z,21.42
2023-07-24T21:33:16.467Z,18.27
2023-07-24T21:35:43.257Z,19.75
2023-07-24T21:38:11.480Z,26.40
2023-07-24T21:40:39.904Z,22.83
2023-07-24T21:43:06.582Z,21.85
2023-07-24T21:45:33.250Z,20.00
2023-07-24T21:48:02.061Z,23.88
2023-07-24T21:50:28.845Z,23.20
2023-07-24T21:52:55.475Z,20.23
2023-07-24T21:55:22.197Z,23.95
2023-07-24T21:57:48.939Z,23.45
2023-07-24T22:00:15.892Z,21.17
2023-07-24T22:02:42.639Z,25.67
2023-07-24T22:05:09.525Z,25.48
2023-07-24T22:07:36.216Z,24.65
2023-07-24T22:10:03.014Z,23.05
2023-07-24T22:12:30.117Z,22.73
2023-07-24T22:14:56.753Z,23.50
2023-07-24T22:17:27.316Z,22.85
2023-07-24T22:19:54.094Z,24.67
2023-07-24T22:22:20.810Z,26.40
2023-07-24T22:24:47.531Z,26.02
2023-07-24T22:27:14.234Z,21.75
2023-07-24T22:29:41.144Z,29.10
2023-07-24T22:32:08.463Z,22.75
2023-07-24T22:34:35.737Z,29.88
2023-07-24T22:37:02.600Z,23.00
2023-07-24T22:39:29.260Z,19.10
2023-07-24T22:41:56.065Z,21.13
2023-07-24T22:44:22.962Z,19.45
2023-07-24T22:46:49.911Z,24.63
2023-07-24T22:49:16.579Z,22.70
2023-07-24T22:51:43.286Z,20.02
2023-07-24T22:54:09.985Z,21.30
2023-07-24T22:56:37.551Z,20.50
2023-07-24T22:59:04.480Z,25.52
2023-07-24T23:01:32.877Z,21.88
2023-07-24T23:03:59.804Z,17.63
2023-07-24T23:06:26.515Z,21.60
2023-07-24T23:08:55.338Z,20.35
2023-07-24T23:11:21.982Z,20.67
2023-07-24T23:13:48.589Z,19.95
2023-07-24T23:16:15.279Z,18.45
2023-07-24T23:18:42.555Z,17.20
2023-07-24T23:21:09.523Z,19.63
2023-07-24T23:23:36.443Z,17.55
2023-07-24T23:26:04.036Z,21.52
2023-07-24T23:28:30.815Z,19.98
2023-07-24T23:30:57.707Z,20.63
2023-07-24T23:33:24.447Z,18.25
2023-07-24T23:35:52.386Z,27.23
2023-07-24T23:38:19.132Z,22.90
2023-07-24T23:40:45.891Z,21.25
2023-07-24T23:43:12.976Z,22.48
2023-07-24T23:45:39.897Z,21.15
2023-07-24T23:48:06.831Z,30.60
2023-07-24T23:50:38.361Z,20.02
2023-07-24T23:53:07.621Z,19.20
2023-07-24T23:55:34.757Z,21.27
2023-07-24T23:58:01.462Z,23.90
